createdAt,value
2019-05-06T00:02:43.473Z,1.40
2019-05-06T00:05:51.551Z,1.30
2019-05-06T00:08:59.556Z,1.40
2019-05-06T00:12:07.508Z,1.33
2019-05-06T00:15:15.569Z,1.60
2019-05-06T00:18:24.509Z,1.53
2019-05-06T00:21:35.561Z,1.33
2019-05-06T00:24:54.670Z,1.77
2019-05-06T00:28:26.595Z,1.47
2019-05-06T00:31:35.377Z,2.00
2019-05-06T00:34:43.724Z,2.00
2019-05-06T00:37:53.579Z,1.97
2019-05-06T00:41:04.622Z,1.90
2019-05-06T00:44:14.296Z,2.00
2019-05-06T00:47:21.936Z,1.80
2019-05-06T00:50:29.910Z,2.13
2019-05-06T00:53:39.248Z,1.97
2019-05-06T00:56:47.468Z,1.80
2019-05-06T01:03:04.303Z,1.60
2019-05-06T01:06:14.190Z,1.67
2019-05-06T01:12:31.446Z,1.40
2019-05-06T01:18:46.580Z,1.80
2019-05-06T01:21:54.399Z,2.00
2019-05-06T01:28:09.362Z,1.73
2019-05-06T01:31:17.587Z,1.60
2019-05-06T01:34:25.541Z,1.43
2019-05-06T01:37:34.752Z,1.57
2019-05-06T01:40:54.606Z,1.77
2019-05-06T01:44:04.255Z,1.70
2019-05-06T01:47:14.391Z,1.80
2019-05-06T01:50:23.541Z,1.60
2019-05-06T01:53:33.762Z,1.90
2019-05-06T01:56:41.604Z,2.47
2019-05-06T01:59:50.013Z,2.00
2019-05-06T02:02:58.249Z,2.30
2019-05-06T02:06:06.559Z,1.83
2019-05-06T02:09:17.970Z,2.03
2019-05-06T02:12:26.276Z,2.00
2019-05-06T02:15:35.573Z,1.60
2019-05-06T02:18:44.809Z,1.90
2019-05-06T02:22:14.460Z,1.87
2019-05-06T02:25:30.241Z,1.60
2019-05-06T02:28:40.372Z,2.00
2019-05-06T02:35:26.378Z,1.90
2019-05-06T02:41:43.567Z,1.93
2019-05-06T02:44:54.027Z,2.30
2019-05-06T02:48:26.247Z,2.30
2019-05-06T02:51:35.040Z,2.10
2019-05-06T02:54:43.043Z,2.03
2019-05-06T02:57:53.684Z,2.10
2019-05-06T03:01:03.628Z,1.63
2019-05-06T03:04:13.249Z,2.00
2019-05-06T03:07:23.321Z,2.20
2019-05-06T03:10:32.873Z,1.83
2019-05-06T03:13:43.756Z,2.10
2019-05-06T03:16:53.766Z,2.20
2019-05-06T03:20:04.192Z,1.93
2019-05-06T03:23:14.252Z,2.60
2019-05-06T03:26:23.545Z,2.47
2019-05-06T03:29:33.402Z,2.33
2019-05-06T03:33:20.250Z,2.07
2019-05-06T03:36:06.439Z,2.20
2019-05-06T03:39:03.152Z,2.13
2019-05-06T03:42:16.044Z,2.00
2019-05-06T03:45:42.878Z,1.90
2019-05-06T03:48:53.096Z,2.37
2019-05-06T03:52:02.755Z,2.57
2019-05-06T03:55:13.843Z,2.87
2019-05-06T03:58:26.307Z,2.70
2019-05-06T04:01:33.375Z,2.43
2019-05-06T04:04:43.795Z,2.13
2019-05-06T04:07:53.082Z,2.70
2019-05-06T04:11:02.941Z,2.53
2019-05-06T04:14:13.697Z,2.33
2019-05-06T04:17:33.545Z,2.60
2019-05-06T04:20:48.251Z,2.63
2019-05-06T04:24:05.269Z,2.23
2019-05-06T04:27:42.777Z,3.03
2019-05-06T04:30:50.284Z,2.73
2019-05-06T04:34:10.063Z,2.77
2019-05-06T04:37:09.376Z,2.77
2019-05-06T04:40:18.836Z,2.90
2019-05-06T04:43:27.292Z,2.60
2019-05-06T04:46:36.450Z,2.93
2019-05-06T04:53:05.893Z,2.93
2019-05-06T04:56:14.690Z,3.00
2019-05-06T04:59:23.235Z,3.20
2019-05-06T05:02:33.654Z,2.90
2019-05-06T05:05:44.930Z,3.30
2019-05-06T05:08:53.210Z,2.57
2019-05-06T05:12:07.516Z,3.20
2019-05-06T05:15:25.717Z,3.50
2019-05-06T05:18:42.494Z,5.07
2019-05-06T05:21:52.242Z,5.87
2019-05-06T05:25:03.258Z,5.73
2019-05-06T05:28:10.239Z,5.53
2019-05-06T05:31:18.550Z,3.70
2019-05-06T05:34:37.198Z,4.37
2019-05-06T05:37:37.558Z,4.40
2019-05-06T05:40:45.548Z,4.30
2019-05-06T05:44:32.412Z,4.40
2019-05-06T05:51:06.096Z,4.60
2019-05-06T05:54:14.249Z,4.53
2019-05-06T05:57:22.650Z,4.30
2019-05-06T06:00:32.514Z,4.30
2019-05-06T06:03:42.199Z,3.80
2019-05-06T06:06:52.001Z,4.20
2019-05-06T06:10:18.084Z,3.60
2019-05-06T06:13:26.097Z,2.77
2019-05-06T06:16:45.239Z,4.10
2019-05-06T06:19:59.089Z,3.10
2019-05-06T06:23:16.280Z,3.80
2019-05-06T06:26:24.531Z,3.30
2019-05-06T06:29:32.498Z,3.43
2019-05-06T06:32:41.932Z,3.20
2019-05-06T06:36:02.842Z,3.27
2019-05-06T06:39:16.251Z,3.37
2019-05-06T06:42:24.361Z,3.20
2019-05-06T06:45:32.683Z,3.23
2019-05-06T06:48:43.062Z,3.60
2019-05-06T06:51:53.228Z,3.80
2019-05-06T06:55:02.384Z,3.37
2019-05-06T06:58:26.218Z,4.43
2019-05-06T07:01:44.223Z,3.60
2019-05-06T07:05:24.787Z,4.03
2019-05-06T07:08:33.993Z,3.83
2019-05-06T07:11:34.279Z,3.60
2019-05-06T07:14:42.909Z,4.10
2019-05-06T07:17:52.503Z,3.20
2019-05-06T07:21:06.599Z,3.57
2019-05-06T07:24:15.425Z,2.50
2019-05-06T07:27:25.684Z,3.40
2019-05-06T07:30:34.580Z,3.00
2019-05-06T07:33:43.030Z,2.87
2019-05-06T07:36:52.481Z,3.50
2019-05-06T07:40:03.041Z,2.63
2019-05-06T07:43:29.585Z,2.07
2019-05-06T07:46:44.643Z,2.53
2019-05-06T07:49:53.240Z,2.40
2019-05-06T07:53:07.549Z,2.20
2019-05-06T07:56:15.618Z,2.47
2019-05-06T07:59:23.577Z,2.60
2019-05-06T08:02:32.090Z,2.37
2019-05-06T08:05:55.228Z,2.13
2019-05-06T08:08:53.634Z,2.30
2019-05-06T08:12:02.796Z,1.90
2019-05-06T08:15:12.660Z,1.97
2019-05-06T08:18:22.572Z,2.20
2019-05-06T08:21:32.686Z,2.00
2019-05-06T08:24:42.255Z,2.23
2019-05-06T08:30:58.223Z,2.07
2019-05-06T08:34:06.404Z,1.97
2019-05-06T08:40:36.358Z,1.70
2019-05-06T08:43:44.415Z,2.23
2019-05-06T08:50:07.270Z,1.67
2019-05-06T08:53:24.381Z,2.47
2019-05-06T08:56:35.549Z,2.10
2019-05-06T08:59:43.646Z,2.43
2019-05-06T09:02:53.017Z,2.27
2019-05-06T09:06:03.185Z,2.23
2019-05-06T09:09:12.997Z,2.00
2019-05-06T09:12:22.376Z,2.00
2019-05-06T09:18:37.563Z,2.33
2019-05-06T09:21:46.494Z,2.60
2019-05-06T09:24:55.521Z,2.63
2019-05-06T09:28:13.163Z,2.77
2019-05-06T09:31:24.455Z,3.10
2019-05-06T09:37:53.379Z,2.53
2019-05-06T09:41:04.951Z,2.83
2019-05-06T09:44:12.413Z,2.20
2019-05-06T09:47:48.634Z,2.63
2019-05-06T09:50:56.566Z,2.10
2019-05-06T09:54:23.746Z,2.63
2019-05-06T09:57:34.250Z,2.17
2019-05-06T10:00:45.573Z,2.13
2019-05-06T10:03:54.275Z,2.30
2019-05-06T10:07:02.863Z,2.27
2019-05-06T10:10:10.641Z,1.80
2019-05-06T10:13:18.636Z,1.83
2019-05-06T10:16:26.586Z,1.70
2019-05-06T10:19:34.658Z,2.10
2019-05-06T10:22:43.138Z,1.77
2019-05-06T10:25:52.339Z,2.00
2019-05-06T10:29:22.296Z,2.00
2019-05-06T10:32:36.254Z,1.57
2019-05-06T10:35:44.421Z,1.53
2019-05-06T10:38:58.843Z,1.90
2019-05-06T10:42:13.313Z,1.47
2019-05-06T10:45:32.389Z,1.70
2019-05-06T10:48:42.400Z,1.50
2019-05-06T10:51:58.542Z,1.77
2019-05-06T10:55:06.579Z,1.57
2019-05-06T10:58:14.553Z,1.73
2019-05-06T11:01:33.087Z,1.57
2019-05-06T11:04:42.630Z,2.00
2019-05-06T11:07:52.157Z,1.87
2019-05-06T11:14:09.532Z,1.83
2019-05-06T11:17:17.691Z,1.87
2019-05-06T11:20:25.540Z,1.93
2019-05-06T11:23:33.938Z,1.60
2019-05-06T11:26:45.253Z,1.80
2019-05-06T11:29:55.241Z,1.90
2019-05-06T11:33:13.041Z,1.53
2019-05-06T11:36:46.410Z,1.55
2019-05-06T11:43:01.611Z,1.47
2019-05-06T11:46:11.740Z,1.27
2019-05-06T11:52:26.334Z,1.50
2019-05-06T11:55:38.791Z,1.60
2019-05-06T12:02:02.795Z,1.40
2019-05-06T12:05:12.531Z,1.60
2019-05-06T12:08:22.173Z,1.53
2019-05-06T12:11:30.563Z,1.63
2019-05-06T12:14:38.535Z,1.40
2019-05-06T12:17:46.409Z,1.50
2019-05-06T12:21:07.967Z,1.70
2019-05-06T12:27:14.255Z,1.60
2019-05-06T12:30:24.258Z,1.60
2019-05-06T12:33:36.233Z,1.50
2019-05-06T12:39:55.577Z,1.47
2019-05-06T12:43:22.544Z,1.50
2019-05-06T12:46:43.566Z,1.70
2019-05-06T12:49:53.417Z,1.10
2019-05-06T12:53:01.374Z,1.90
2019-05-06T12:56:09.602Z,1.20
2019-05-06T12:59:17.561Z,1.50
2019-05-06T13:02:25.640Z,1.40
2019-05-06T13:05:33.578Z,1.40
2019-05-06T13:08:56.813Z,1.13
2019-05-06T13:11:52.360Z,1.60
2019-05-06T13:15:03.301Z,1.40
2019-05-06T13:18:11.535Z,1.60
2019-05-06T13:21:22.209Z,1.83
2019-05-06T13:24:29.491Z,1.50
2019-05-06T13:27:37.590Z,1.40
2019-05-06T13:30:45.529Z,1.30
2019-05-06T13:34:02.826Z,1.60
2019-05-06T13:37:12.734Z,1.50
2019-05-06T13:43:35.272Z,1.37
2019-05-06T13:46:54.589Z,1.20
2019-05-06T13:50:03.089Z,1.53
2019-05-06T13:53:14.441Z,1.50
2019-05-06T13:56:21.302Z,1.20
2019-05-06T13:59:30.569Z,4.10
2019-05-06T14:02:48.616Z,1.93
2019-05-06T14:05:56.575Z,1.30
2019-05-06T14:09:05.102Z,1.40
2019-05-06T14:12:13.886Z,1.10
2019-05-06T14:15:23.217Z,1.40
2019-05-06T14:21:38.542Z,1.63
2019-05-06T14:24:56.489Z,1.50
2019-05-06T14:28:12.434Z,1.30
2019-05-06T14:31:27.006Z,1.53
2019-05-06T14:34:35.240Z,1.30
2019-05-06T14:37:45.459Z,1.30
2019-05-06T14:44:23.240Z,1.20
2019-05-06T14:47:33.235Z,1.23
2019-05-06T14:50:46.078Z,1.30
2019-05-06T14:53:52.981Z,1.13
2019-05-06T14:57:08.596Z,0.93
2019-05-06T15:00:19.248Z,1.27
2019-05-06T15:03:27.511Z,1.70
2019-05-06T15:06:36.239Z,1.63
2019-05-06T15:09:58.556Z,1.40
2019-05-06T15:12:55.511Z,1.60
2019-05-06T15:16:03.802Z,1.53
2019-05-06T15:19:12.846Z,1.23
2019-05-06T15:22:22.636Z,1.40
2019-05-06T15:25:33.115Z,1.57
2019-05-06T15:28:42.550Z,1.23
2019-05-06T15:32:08.246Z,1.60
2019-05-06T15:35:52.470Z,2.67
2019-05-06T15:39:02.400Z,1.90
2019-05-06T15:42:12.901Z,1.50
2019-05-06T15:45:21.973Z,1.50
2019-05-06T15:48:33.045Z,1.70
2019-05-06T15:51:42.749Z,1.40
2019-05-06T15:54:52.449Z,1.90
2019-05-06T15:58:00.569Z,1.57
2019-05-06T16:01:09.551Z,3.03
2019-05-06T16:04:17.737Z,1.70
2019-05-06T16:07:26.273Z,1.77
2019-05-06T16:10:51.348Z,1.63
2019-05-06T16:16:53.075Z,1.90
2019-05-06T16:20:02.749Z,2.30
2019-05-06T16:23:42.405Z,2.03
2019-05-06T16:26:52.687Z,2.20
2019-05-06T16:30:03.461Z,2.20
2019-05-06T16:33:18.800Z,2.27
2019-05-06T16:36:25.642Z,2.03
2019-05-06T16:39:37.420Z,1.60
2019-05-06T16:45:54.044Z,2.07
2019-05-06T16:49:03.971Z,1.73
2019-05-06T16:52:13.020Z,1.83
2019-05-06T16:55:33.727Z,1.87
2019-05-06T16:58:52.714Z,2.07
2019-05-06T17:02:07.265Z,1.80
2019-05-06T17:05:33.707Z,1.80
2019-05-06T17:08:42.517Z,1.93
2019-05-06T17:11:51.729Z,2.00
2019-05-06T17:15:03.337Z,2.20
2019-05-06T17:18:15.259Z,1.80
2019-05-06T17:21:24.608Z,1.80
2019-05-06T17:24:33.370Z,2.10
2019-05-06T17:27:43.493Z,2.50
2019-05-06T17:31:13.245Z,2.10
2019-05-06T17:34:26.251Z,1.80
2019-05-06T17:37:52.744Z,1.90
2019-05-06T17:41:02.993Z,2.00
2019-05-06T17:47:32.083Z,1.97
2019-05-06T17:50:42.038Z,1.80
2019-05-06T17:53:53.266Z,2.00
2019-05-06T17:57:04.648Z,2.00
2019-05-06T18:00:14.260Z,1.83
2019-05-06T18:03:24.908Z,2.23
2019-05-06T18:06:36.701Z,2.17
2019-05-06T18:09:49.172Z,2.00
2019-05-06T18:12:57.724Z,2.20
2019-05-06T18:16:09.083Z,2.33
2019-05-06T18:19:18.166Z,2.53
2019-05-06T18:22:26.585Z,3.70
2019-05-06T18:25:34.593Z,3.10
2019-05-06T18:28:46.703Z,4.40
2019-05-06T18:31:54.722Z,4.77
2019-05-06T18:35:02.915Z,4.33
2019-05-06T18:38:11.131Z,5.90
2019-05-06T18:41:20.774Z,5.93
2019-05-06T18:44:28.927Z,14.00
2019-05-06T18:47:38.168Z,21.83
2019-05-06T18:50:46.638Z,8.63
2019-05-06T18:53:56.414Z,6.10
2019-05-06T18:57:06.090Z,5.50
2019-05-06T19:00:16.032Z,4.40
2019-05-06T19:03:27.634Z,3.13
2019-05-06T19:06:36.636Z,4.07
2019-05-06T19:10:03.190Z,3.93
2019-05-06T19:13:12.687Z,2.93
2019-05-06T19:16:22.346Z,2.70
2019-05-06T19:19:34.180Z,2.17
2019-05-06T19:22:43.112Z,3.17
2019-05-06T19:25:52.594Z,6.67
2019-05-06T19:29:04.354Z,11.60
2019-05-06T19:32:12.341Z,15.70
2019-05-06T19:35:22.260Z,14.47
2019-05-06T19:38:33.570Z,11.87
2019-05-06T19:44:48.343Z,6.80
2019-05-06T19:47:58.010Z,6.43
2019-05-06T19:51:07.661Z,4.40
2019-05-06T19:54:18.538Z,4.27
2019-05-06T19:57:26.944Z,3.60
2019-05-06T20:00:35.051Z,3.33
2019-05-06T20:03:46.759Z,3.40
2019-05-06T20:07:18.439Z,2.97
2019-05-06T20:10:42.037Z,2.60
2019-05-06T20:13:52.440Z,3.77
2019-05-06T20:17:00.551Z,3.97
2019-05-06T20:20:13.508Z,5.00
2019-05-06T20:23:18.847Z,4.37
2019-05-06T20:29:38.204Z,3.50
2019-05-06T20:32:44.577Z,3.10
2019-05-06T20:35:52.940Z,3.07
2019-05-06T20:39:02.491Z,3.23
2019-05-06T20:42:15.946Z,4.77
2019-05-06T20:45:24.333Z,7.47
2019-05-06T20:54:50.127Z,10.50
2019-05-06T20:57:58.156Z,13.27
2019-05-06T21:01:06.645Z,19.00
2019-05-06T21:04:16.566Z,16.73
2019-05-06T21:07:26.238Z,12.47
2019-05-06T21:10:35.751Z,10.00
2019-05-06T21:13:43.536Z,8.37
2019-05-06T21:16:51.608Z,7.97
2019-05-06T21:19:59.548Z,6.67
2019-05-06T21:23:07.659Z,6.03
2019-05-06T21:26:15.553Z,5.80
2019-05-06T21:29:23.675Z,5.27
2019-05-06T21:32:33.006Z,5.17
2019-05-06T21:35:42.638Z,4.95
2019-05-06T21:38:52.445Z,5.70
2019-05-06T21:42:02.038Z,5.03
2019-05-06T21:45:12.592Z,5.30
2019-05-06T21:48:22.306Z,4.43
2019-05-06T21:51:32.712Z,4.70
2019-05-06T21:54:43.260Z,5.33
2019-05-06T21:57:52.945Z,6.33
2019-05-06T22:01:05.899Z,6.80
2019-05-06T22:07:24.321Z,7.90
2019-05-06T22:10:32.675Z,7.80
2019-05-06T22:13:42.588Z,9.17
2019-05-06T22:16:50.553Z,12.83
2019-05-06T22:19:58.540Z,22.60
2019-05-06T22:23:06.578Z,16.90
2019-05-06T22:26:16.298Z,16.80
2019-05-06T22:29:24.579Z,19.30
2019-05-06T22:32:35.264Z,14.67
2019-05-06T22:35:45.534Z,18.17
2019-05-06T22:38:53.617Z,14.70
2019-05-06T22:42:02.679Z,14.80
2019-05-06T22:45:12.555Z,16.23
2019-05-06T22:48:22.210Z,14.20
2019-05-06T22:51:32.306Z,11.87
2019-05-06T22:57:47.553Z,5.60
2019-05-06T23:00:56.614Z,4.23
2019-05-06T23:04:05.031Z,4.03
2019-05-06T23:07:14.433Z,3.50
2019-05-06T23:10:24.826Z,3.00
2019-05-06T23:13:32.709Z,3.43
2019-05-06T23:16:42.446Z,3.40
2019-05-06T23:19:52.783Z,3.13
2019-05-06T23:23:02.411Z,3.20
2019-05-06T23:26:24.402Z,2.77
2019-05-06T23:29:32.573Z,3.00
2019-05-06T23:32:42.259Z,3.23
2019-05-06T23:35:51.810Z,3.03
2019-05-06T23:40:00.589Z,3.00
2019-05-06T23:44:03.250Z,3.47
2019-05-06T23:48:07.053Z,2.97
2019-05-06T23:52:12.036Z,3.07
2019-05-06T23:56:14.927Z,3.27
2019-05-06T23:59:22.670Z,4.13
